This is the latest recevied weather packets stored in our database for station/object DF9PM-13. If no packets are shown the sender has not sent any weather packets the latest 10 day(s).
| Time | Temp. | Humidity | Pressure | Rain* | Wind** | Luminosity | Snow |
|---|---|---|---|---|---|---|---|
| 1778074575 | 17.78° C | 82% | 1005.8 hPa | - | - | - | - |
| 1778074275 | 17.22° C | 86% | 1005.9 hPa | - | - | - | - |
| 1778073975 | 17.78° C | 86% | 1005.9 hPa | - | - | - | - |
| 1778073675 | 17.78° C | 83% | 1005.8 hPa | - | - | - | - |
| 1778073375 | 17.22° C | 82% | 1005.8 hPa | - | - | - | - |
| 1778073074 | 17.22° C | 80% | 1005.7 hPa | - | - | - | - |
| 1778072774 | 17.78° C | 76% | 1005.6 hPa | - | - | - | - |
| 1778072474 | 18.89° C | 73% | 1005.6 hPa | - | - | - | - |
| 1778072174 | 18.33° C | 74% | 1005.7 hPa | - | - | - | - |
| 1778071874 | 18.33° C | 74% | 1005.7 hPa | - | - | - | - |
| 1778071574 | 17.78° C | 76% | 1005.8 hPa | - | - | - | - |
| 1778071274 | 17.78° C | 77% | 1005.8 hPa | - | - | - | - |
| 1778070974 | 17.78° C | 76% | 1005.8 hPa | - | - | - | - |
| 1778070674 | 17.78° C | 74% | 1005.9 hPa | - | - | - | - |
| 1778070374 | 18.33° C | 73% | 1005.8 hPa | - | - | - | - |
| 1778070074 | 18.89° C | 73% | 1005.7 hPa | - | - | - | - |
| 1778069774 | 18.33° C | 80% | 1005.8 hPa | - | - | - | - |
| 1778069474 | 17.22° C | 81% | 1005.8 hPa | - | - | - | - |
| 1778069174 | 17.22° C | 81% | 1005.8 hPa | - | - | - | - |
| 1778068874 | 17.22° C | 82% | 1005.8 hPa | - | - | - | - |
| 1778068574 | 17.78° C | 80% | 1005.8 hPa | - | - | - | - |
| 1778068274 | 17.78° C | 80% | 1005.8 hPa | - | - | - | - |
| 1778067974 | 17.78° C | 82% | 1005.8 hPa | - | - | - | - |
| 1778067673 | 17.78° C | 80% | 1005.8 hPa | - | - | - | - |
| 1778067374 | 17.22° C | 81% | 1005.7 hPa | - | - | - | - |
* Rain since midnight (hover to see other rain measurements)
** Current wind speed in m/s (hover to see current wind gust speed)